createdAt,value
2022-08-27T00:09:13.699Z,35
2022-08-27T00:19:15.721Z,35
2022-08-27T00:29:17.642Z,35
2022-08-27T00:39:19.468Z,36
2022-08-27T00:49:21.221Z,36
2022-08-27T00:59:23.036Z,40
2022-08-27T01:09:24.780Z,40
2022-08-27T01:19:26.683Z,48
2022-08-27T01:29:28.475Z,53
2022-08-27T01:39:30.581Z,84
2022-08-27T01:49:31.757Z,60
2022-08-27T01:59:39.266Z,73
2022-08-27T02:09:38.922Z,65
2022-08-27T02:19:40.895Z,66
2022-08-27T02:29:42.930Z,71
2022-08-27T02:39:46.349Z,58
2022-08-27T02:49:48.219Z,58
2022-08-27T02:59:50.622Z,63
2022-08-27T03:09:52.797Z,63
2022-08-27T03:19:55.781Z,63
2022-08-27T03:30:04.150Z,55
2022-08-27T03:40:02.964Z,55
2022-08-27T03:50:05.258Z,51
2022-08-27T04:00:07.913Z,51
2022-08-27T04:10:10.724Z,50
2022-08-27T04:20:34.835Z,46
2022-08-27T04:30:31.086Z,50
2022-08-27T04:40:34.050Z,51
2022-08-27T04:50:35.091Z,51
2022-08-27T05:00:39.117Z,46
2022-08-27T05:10:46.057Z,48
2022-08-27T05:20:45.753Z,43
2022-08-27T05:30:55.234Z,48
2022-08-27T05:40:54.652Z,51
2022-08-27T05:50:55.868Z,46
2022-08-27T06:01:04.294Z,51
2022-08-27T06:11:14.426Z,43
2022-08-27T06:21:15.258Z,48
2022-08-27T06:31:17.816Z,46
2022-08-27T06:41:24.071Z,48
2022-08-27T06:51:24.579Z,50
2022-08-27T07:01:31.611Z,50
2022-08-27T07:11:32.303Z,48
2022-08-27T07:21:34.556Z,48
2022-08-27T07:31:37.112Z,48
2022-08-27T07:41:40.157Z,48
2022-08-27T07:51:47.348Z,45
2022-08-27T08:01:48.987Z,45
2022-08-27T08:11:51.866Z,45
2022-08-27T08:22:02.578Z,41
2022-08-27T08:32:10.457Z,41
2022-08-27T08:42:13.625Z,43
2022-08-27T08:52:31.055Z,41
2022-08-27T09:02:29.115Z,40
2022-08-27T09:12:35.039Z,40
2022-08-27T09:22:35.587Z,41
2022-08-27T09:32:38.240Z,41
2022-08-27T09:42:41.061Z,41
2022-08-27T09:52:47.979Z,36
2022-08-27T10:02:48.984Z,41
2022-08-27T10:12:55.483Z,40
2022-08-27T10:22:54.646Z,36
2022-08-27T10:33:03.804Z,40
2022-08-27T10:43:00.689Z,35
2022-08-27T10:53:02.218Z,35
2022-08-27T11:03:05.168Z,28
2022-08-27T11:13:08.177Z,27
2022-08-27T11:23:11.515Z,25
2022-08-27T11:33:14.447Z,27
2022-08-27T11:43:17.739Z,29
2022-08-27T11:53:19.280Z,26
2022-08-27T12:03:23.953Z,25
2022-08-27T12:13:27.584Z,23
2022-08-27T12:23:29.570Z,26
2022-08-27T12:33:33.827Z,25
2022-08-27T12:43:36.533Z,26
2022-08-27T12:53:38.832Z,26
2022-08-27T13:03:39.928Z,23
2022-08-27T13:13:44.982Z,23
2022-08-27T13:23:46.323Z,22
2022-08-27T13:33:49.853Z,25
2022-08-27T13:43:50.650Z,28
2022-08-27T13:53:55.928Z,26
2022-08-27T14:03:58.155Z,26
2022-08-27T14:14:02.288Z,24
2022-08-27T14:24:02.276Z,26
2022-08-27T14:34:02.899Z,25
2022-08-27T14:44:09.125Z,27
2022-08-27T14:54:10.324Z,26
2022-08-27T15:04:11.360Z,27
2022-08-27T15:14:15.860Z,26
2022-08-27T15:24:17.571Z,26
2022-08-27T15:34:21.787Z,26
2022-08-27T15:44:19.768Z,29
2022-08-27T15:54:21.288Z,26
2022-08-27T16:04:22.094Z,28
2022-08-27T16:14:24.974Z,27
2022-08-27T16:24:27.444Z,26
2022-08-27T16:34:36.709Z,27
2022-08-27T16:44:33.701Z,27
2022-08-27T16:54:36.485Z,25
2022-08-27T17:04:43.133Z,28
2022-08-27T17:14:50.143Z,28
2022-08-27T17:24:52.009Z,29
2022-08-27T17:34:53.711Z,28
2022-08-27T17:44:56.854Z,28
2022-08-27T17:54:57.156Z,29
2022-08-27T18:04:59.359Z,41
2022-08-27T18:15:02.564Z,31
2022-08-27T18:25:03.036Z,31
2022-08-27T18:35:04.955Z,33
2022-08-27T18:45:06.829Z,40
2022-08-27T18:55:10.297Z,38
2022-08-27T19:05:11.090Z,35
2022-08-27T19:15:13.560Z,41
2022-08-27T19:25:16.983Z,35
2022-08-27T19:35:18.327Z,41
2022-08-27T19:45:24.339Z,40
2022-08-27T19:55:24.645Z,40
2022-08-27T20:05:27.142Z,40
2022-08-27T20:15:28.732Z,41
2022-08-27T20:25:36.428Z,41
2022-08-27T20:35:39.068Z,41
2022-08-27T20:45:41.015Z,41
2022-08-27T20:55:42.297Z,41
2022-08-27T21:05:50.107Z,43
2022-08-27T21:15:54.780Z,43
2022-08-27T21:25:55.544Z,41
2022-08-27T21:36:02.423Z,43
2022-08-27T21:46:03.578Z,41
2022-08-27T21:56:06.300Z,50
2022-08-27T22:06:09.332Z,46
2022-08-27T22:16:12.707Z,55
2022-08-27T22:26:15.308Z,45
2022-08-27T22:36:17.880Z,36
2022-08-27T22:46:21.778Z,36
2022-08-27T22:56:23.642Z,36
2022-08-27T23:06:26.542Z,35
2022-08-27T23:16:33.726Z,31
2022-08-27T23:26:34.868Z,29
2022-08-27T23:36:38.453Z,29
2022-08-27T23:46:41.958Z,28
2022-08-27T23:56:43.285Z,26
